Time;durP1;ratioP1;P1;durP2;ratioP2;P2;SDS_P1;SDS_P2;PMS_P1;PMS_P2;Temp;Humidity;BMP_temperature;BMP_pressure;BME280_temperature;BME280_humidity;BME280_pressure;Samples;Min_cycle;Max_cycle;Signal;HPM_P1;HPM_P2
2021/12/11 00:01:46;;;;;;;;;;;4.20;98.60;;;;;;5005852;28;19936;-74
2021/12/11 00:04:15;;;;;;;;;;;4.20;98.60;;;;;;5006067;28;19947;-73
2021/12/11 00:06:42;;;;;;;;;;;4.20;98.60;;;;;;5006158;28;19929;-73
2021/12/11 00:09:11;;;;;;;;;;;4.20;98.60;;;;;;5007307;28;19928;-73
2021/12/11 00:11:40;;;;;;;;;;;4.20;98.60;;;;;;5006418;28;19944;-72
2021/12/11 00:14:07;;;;;;;;;;;4.20;98.60;;;;;;5006510;28;19932;-72
2021/12/11 00:16:36;;;;;;;;;;;4.20;98.60;;;;;;5003843;28;19929;-73
2021/12/11 00:19:05;;;;;;;;;;;4.20;98.60;;;;;;5006314;28;19926;-72
2021/12/11 00:21:32;;;;;;;;;;;4.20;98.60;;;;;;5005867;28;20401;-72
2021/12/11 00:24:00;;;;;;;;;;;4.20;98.90;;;;;;5004468;28;20012;-72
2021/12/11 00:26:29;;;;;;;;;;;4.20;98.60;;;;;;5006098;28;19937;-73
2021/12/11 00:28:56;;;;;;;;;;;4.20;98.60;;;;;;5000330;28;19921;-73
2021/12/11 00:31:23;;;;;;;;;;;4.20;98.60;;;;;;5004496;28;19928;-72
2021/12/11 00:33:51;;;;;;;;;;;4.20;98.60;;;;;;5006923;28;19979;-73
2021/12/11 00:36:19;;;;;;;;;;;4.20;98.60;;;;;;5009301;28;20092;-73
2021/12/11 00:38:48;;;;;;;;;;;4.10;98.60;;;;;;5001962;28;19932;-72
2021/12/11 00:41:15;;;;;;;;;;;4.10;98.60;;;;;;5010401;28;19957;-72
2021/12/11 00:43:43;;;;;;;;;;;4.10;98.60;;;;;;5012200;28;19931;-74
2021/12/11 00:46:12;;;;;;;;;;;4.10;98.60;;;;;;5004950;28;19932;-73
2021/12/11 00:48:38;;;;;;;;;;;4.10;98.60;;;;;;5007360;28;19921;-73
2021/12/11 00:51:07;;;;;;;;;;;4.10;98.60;;;;;;5012506;28;20030;-74
2021/12/11 00:53:36;;;;;;;;;;;4.10;98.60;;;;;;5009969;28;19928;-73
2021/12/11 00:56:04;;;;;;;;;;;4.10;98.60;;;;;;5005538;28;19925;-73
2021/12/11 00:58:32;;;;;;;;;;;4.10;98.60;;;;;;5005196;28;20004;-73
2021/12/11 01:01:00;;;;;;;;;;;4.10;98.60;;;;;;5002091;28;19932;-72
2021/12/11 01:03:28;;;;;;;;;;;4.10;98.60;;;;;;5002329;28;19929;-73
2021/12/11 01:05:56;;;;;;;;;;;4.10;98.70;;;;;;5003204;28;20024;-72
2021/12/11 01:08:27;;;;;;;;;;;4.10;98.70;;;;;;5004383;28;19929;-72
2021/12/11 01:10:58;;;;;;;;;;;4.10;98.70;;;;;;5003327;28;20008;-73
2021/12/11 01:13:28;;;;;;;;;;;4.10;98.70;;;;;;5004995;28;19925;-73
2021/12/11 01:15:58;;;;;;;;;;;4.10;98.70;;;;;;5003776;28;19925;-73
2021/12/11 01:18:34;;;;;;;;;;;4.10;98.60;;;;;;5003523;28;20714;-73
2021/12/11 01:21:07;;;;;;;;;;;4.10;98.60;;;;;;5004618;28;20757;-72
2021/12/11 01:23:47;;;;;;;;;;;4.10;98.60;;;;;;5001725;28;20393;-73
2021/12/11 01:26:15;;;;;;;;;;;4.10;98.60;;;;;;5003956;28;19970;-73
2021/12/11 01:28:42;;;;;;;;;;;4.10;98.60;;;;;;5005180;28;19925;-73
2021/12/11 01:31:10;;;;;;;;;;;4.10;98.60;;;;;;5000942;28;19930;-74
2021/12/11 01:33:37;;;;;;;;;;;4.10;98.60;;;;;;5005646;28;19921;-73
2021/12/11 01:36:05;;;;;;;;;;;4.10;98.60;;;;;;5005223;28;20343;-73
2021/12/11 01:38:31;;;;;;;;;;;4.10;98.60;;;;;;5000472;28;19926;-73
2021/12/11 01:41:01;;;;;;;;;;;4.10;98.60;;;;;;5005275;28;20504;-73
2021/12/11 01:43:29;;;;;;;;;;;4.10;98.60;;;;;;5005226;28;19933;-74
2021/12/11 01:45:56;;;;;;;;;;;4.10;98.60;;;;;;5001035;28;19929;-74
2021/12/11 01:48:26;;;;;;;;;;;4.10;98.60;;;;;;5004731;28;19925;-73
2021/12/11 01:50:54;;;;;;;;;;;4.00;98.60;;;;;;5001899;28;19932;-73
2021/12/11 01:53:22;;;;;;;;;;;4.00;98.60;;;;;;5003682;28;19936;-72
2021/12/11 01:55:51;;;;;;;;;;;4.00;98.60;;;;;;5003944;28;19934;-72
2021/12/11 01:58:25;;;;;;;;;;;4.10;98.60;;;;;;5004783;28;19929;-73
2021/12/11 02:00:53;;;;;;;;;;;4.00;98.60;;;;;;5003388;28;19925;-74
2021/12/11 02:03:24;;;;;;;;;;;4.00;98.60;;;;;;5003912;28;19980;-73
2021/12/11 02:05:51;;;;;;;;;;;4.00;98.60;;;;;;5006482;28;19929;-73
2021/12/11 02:08:20;;;;;;;;;;;4.00;98.60;;;;;;5004496;28;19956;-73
2021/12/11 02:10:48;;;;;;;;;;;4.00;98.60;;;;;;5003796;28;19925;-73
2021/12/11 02:13:19;;;;;;;;;;;4.00;98.60;;;;;;5003508;28;19933;-74
2021/12/11 02:15:51;;;;;;;;;;;4.00;98.60;;;;;;5001010;28;19926;-72
2021/12/11 02:18:19;;;;;;;;;;;4.00;98.60;;;;;;5010315;28;21784;-73
2021/12/11 02:20:49;;;;;;;;;;;4.00;98.60;;;;;;5005033;28;19925;-73
2021/12/11 02:23:17;;;;;;;;;;;4.00;98.60;;;;;;5003745;28;20413;-74
2021/12/11 02:25:46;;;;;;;;;;;4.00;98.60;;;;;;5004141;28;19953;-74
2021/12/11 02:28:15;;;;;;;;;;;4.00;98.60;;;;;;5004231;28;20594;-74
2021/12/11 02:30:44;;;;;;;;;;;4.00;98.60;;;;;;4999536;28;19983;-73
2021/12/11 02:33:16;;;;;;;;;;;4.00;98.60;;;;;;5001381;28;19932;-73
2021/12/11 02:35:45;;;;;;;;;;;4.00;98.60;;;;;;5002712;28;19925;-73
2021/12/11 02:38:14;;;;;;;;;;;4.00;98.60;;;;;;5001136;28;19926;-73
2021/12/11 02:40:45;;;;;;;;;;;4.00;98.60;;;;;;5004590;28;20385;-73
2021/12/11 02:43:14;;;;;;;;;;;4.00;98.60;;;;;;5004878;28;19925;-74
2021/12/11 02:45:43;;;;;;;;;;;4.00;98.60;;;;;;5002495;28;19932;-72
2021/12/11 02:48:12;;;;;;;;;;;4.00;98.60;;;;;;5012901;28;19955;-73
2021/12/11 02:50:40;;;;;;;;;;;4.00;98.60;;;;;;5005307;28;20320;-73
2021/12/11 02:53:09;;;;;;;;;;;3.90;98.60;;;;;;5004495;28;19930;-73
2021/12/11 02:55:38;;;;;;;;;;;3.90;98.60;;;;;;5007523;28;19925;-73
2021/12/11 02:58:08;;;;;;;;;;;4.00;98.70;;;;;;5006692;28;20350;-72
2021/12/11 03:00:37;;;;;;;;;;;3.90;98.60;;;;;;5005034;28;19940;-73
2021/12/11 03:03:06;;;;;;;;;;;3.90;98.60;;;;;;5004629;28;19948;-73
2021/12/11 03:05:39;;;;;;;;;;;3.90;98.90;;;;;;5009147;28;19965;-73
2021/12/11 03:08:08;;;;;;;;;;;3.90;98.60;;;;;;5006053;28;19929;-73
2021/12/11 03:10:35;;;;;;;;;;;3.90;98.60;;;;;;5007958;28;19925;-73
2021/12/11 03:13:01;;;;;;;;;;;3.90;98.60;;;;;;5007595;28;19932;-72
2021/12/11 03:15:29;;;;;;;;;;;3.90;98.60;;;;;;5003629;28;19932;-73
2021/12/11 03:17:56;;;;;;;;;;;3.90;98.60;;;;;;5006190;28;19936;-72
2021/12/11 03:20:23;;;;;;;;;;;3.90;98.60;;;;;;5006907;28;19926;-73
2021/12/11 03:22:50;;;;;;;;;;;3.90;98.60;;;;;;5007676;28;19929;-73
2021/12/11 03:25:18;;;;;;;;;;;3.90;98.60;;;;;;5005410;28;19925;-72
2021/12/11 03:27:45;;;;;;;;;;;3.90;98.60;;;;;;5007499;28;21126;-72
2021/12/11 03:30:15;;;;;;;;;;;3.90;98.60;;;;;;5004100;28;19932;-73
2021/12/11 03:32:43;;;;;;;;;;;3.90;98.60;;;;;;5007078;28;19925;-73
2021/12/11 03:35:10;;;;;;;;;;;3.90;98.60;;;;;;5005493;28;20377;-73
2021/12/11 03:37:37;;;;;;;;;;;3.90;98.60;;;;;;5004512;28;20377;-72
2021/12/11 03:40:04;;;;;;;;;;;3.90;98.60;;;;;;5005593;28;19929;-73
2021/12/11 03:42:32;;;;;;;;;;;3.90;98.60;;;;;;5005534;28;19930;-73
2021/12/11 03:44:59;;;;;;;;;;;3.90;98.60;;;;;;5005541;28;19932;-73
2021/12/11 03:47:27;;;;;;;;;;;3.90;98.60;;;;;;5006758;28;19932;-73
2021/12/11 03:49:56;;;;;;;;;;;3.90;98.60;;;;;;5004607;28;19921;-72
2021/12/11 03:52:22;;;;;;;;;;;3.90;98.60;;;;;;5006447;28;19933;-73
2021/12/11 03:54:50;;;;;;;;;;;3.90;98.60;;;;;;5003516;28;19995;-73
2021/12/11 03:57:18;;;;;;;;;;;3.80;98.60;;;;;;5005114;28;19995;-72
2021/12/11 03:59:47;;;;;;;;;;;3.90;98.60;;;;;;5004674;28;19932;-73
2021/12/11 04:02:14;;;;;;;;;;;3.80;98.60;;;;;;5005140;28;19926;-73
2021/12/11 04:04:43;;;;;;;;;;;3.80;98.60;;;;;;5006270;28;19925;-73
2021/12/11 04:07:12;;;;;;;;;;;3.80;98.60;;;;;;5005966;28;19980;-73
2021/12/11 04:09:39;;;;;;;;;;;3.80;98.60;;;;;;5002340;28;19929;-73
2021/12/11 04:12:08;;;;;;;;;;;3.80;98.60;;;;;;5003982;28;19925;-74
2021/12/11 04:14:36;;;;;;;;;;;3.80;98.60;;;;;;5008881;28;20451;-73
2021/12/11 04:17:04;;;;;;;;;;;3.80;98.60;;;;;;5003466;28;20316;-74
2021/12/11 04:19:31;;;;;;;;;;;3.80;98.60;;;;;;5007337;28;19960;-73
2021/12/11 04:21:57;;;;;;;;;;;3.80;98.60;;;;;;5006795;28;19926;-73
2021/12/11 04:24:28;;;;;;;;;;;3.80;98.60;;;;;;5005683;28;19925;-74
2021/12/11 04:26:56;;;;;;;;;;;3.80;98.60;;;;;;5005827;28;20761;-73
2021/12/11 04:29:23;;;;;;;;;;;3.80;98.60;;;;;;5002241;28;19929;-72
2021/12/11 04:31:50;;;;;;;;;;;3.80;98.60;;;;;;5004693;28;20467;-73
2021/12/11 04:34:18;;;;;;;;;;;3.80;98.60;;;;;;5006169;28;20134;-72
2021/12/11 04:36:46;;;;;;;;;;;3.80;98.60;;;;;;5006110;28;19929;-73
2021/12/11 04:39:14;;;;;;;;;;;3.80;98.60;;;;;;5004058;28;19933;-73
2021/12/11 04:41:51;;;;;;;;;;;3.80;98.60;;;;;;5006787;28;19928;-73
2021/12/11 04:44:21;;;;;;;;;;;3.80;98.60;;;;;;5006640;28;19975;-73
2021/12/11 04:46:48;;;;;;;;;;;3.80;98.70;;;;;;5002776;28;20020;-74
2021/12/11 04:49:22;;;;;;;;;;;3.80;98.70;;;;;;5008938;28;19935;-72
2021/12/11 04:51:59;;;;;;;;;;;3.70;98.60;;;;;;5005443;28;19925;-73
2021/12/11 04:54:39;;;;;;;;;;;3.80;98.70;;;;;;5003511;28;20020;-73
2021/12/11 05:00:07;;;;;;;;;;;3.70;98.60;;;;;;4978505;28;19937;-73
2021/12/11 05:02:59;;;;;;;;;;;3.70;98.70;;;;;;4999312;28;20018;-73
2021/12/11 05:05:42;;;;;;;;;;;3.70;98.70;;;;;;5005441;28;19979;-73
2021/12/11 05:08:36;;;;;;;;;;;3.70;98.60;;;;;;5003864;28;19929;-73
2021/12/11 05:11:04;;;;;;;;;;;3.70;98.60;;;;;;5004822;28;19935;-73
2021/12/11 05:13:32;;;;;;;;;;;3.70;98.60;;;;;;5004257;28;19934;-73
2021/12/11 05:16:00;;;;;;;;;;;3.70;98.70;;;;;;5000998;28;20388;-74
2021/12/11 05:18:28;;;;;;;;;;;3.70;98.60;;;;;;5003484;28;20016;-73
2021/12/11 05:20:56;;;;;;;;;;;3.70;98.70;;;;;;5004595;28;19933;-73
2021/12/11 05:23:23;;;;;;;;;;;3.70;98.70;;;;;;5005079;28;19929;-73
2021/12/11 05:25:50;;;;;;;;;;;3.70;98.70;;;;;;5007398;28;19925;-73
2021/12/11 05:28:17;;;;;;;;;;;3.70;98.70;;;;;;5004829;28;19933;-73
2021/12/11 05:30:46;;;;;;;;;;;3.70;98.70;;;;;;5002357;28;19925;-74
2021/12/11 05:33:13;;;;;;;;;;;3.70;98.70;;;;;;5003794;28;19926;-74
2021/12/11 05:35:40;;;;;;;;;;;3.70;98.70;;;;;;5004746;28;19932;-74
2021/12/11 05:38:08;;;;;;;;;;;3.70;98.70;;;;;;5003200;28;20381;-73
2021/12/11 05:40:35;;;;;;;;;;;3.70;98.70;;;;;;5004970;28;19930;-74
2021/12/11 05:43:02;;;;;;;;;;;3.70;98.70;;;;;;5004302;28;19936;-73
2021/12/11 05:45:28;;;;;;;;;;;3.70;98.70;;;;;;5001129;28;20356;-74
2021/12/11 05:47:58;;;;;;;;;;;3.70;98.70;;;;;;5002314;28;19940;-73
2021/12/11 05:50:27;;;;;;;;;;;3.70;98.70;;;;;;5001170;28;19925;-73
2021/12/11 05:52:54;;;;;;;;;;;3.70;98.70;;;;;;5003316;28;19933;-73
2021/12/11 05:55:21;;;;;;;;;;;3.70;98.70;;;;;;5002036;28;19935;-73
2021/12/11 05:57:52;;;;;;;;;;;3.70;98.70;;;;;;5004186;28;19925;-73
2021/12/11 06:00:22;;;;;;;;;;;3.70;98.70;;;;;;5001971;28;20396;-74
2021/12/11 06:02:49;;;;;;;;;;;3.70;98.70;;;;;;5003672;28;19925;-74
2021/12/11 06:05:17;;;;;;;;;;;3.70;98.70;;;;;;5005204;28;19929;-73
2021/12/11 06:07:43;;;;;;;;;;;3.70;98.70;;;;;;5005416;28;19929;-74
2021/12/11 06:10:12;;;;;;;;;;;3.70;98.70;;;;;;5000311;28;20716;-74
2021/12/11 06:12:39;;;;;;;;;;;3.70;98.70;;;;;;5004263;28;19925;-72
2021/12/11 06:15:06;;;;;;;;;;;3.70;98.70;;;;;;5002035;28;20368;-74
2021/12/11 06:17:33;;;;;;;;;;;3.60;98.70;;;;;;5005337;28;20321;-74
2021/12/11 06:20:00;;;;;;;;;;;3.70;98.70;;;;;;5009145;28;19948;-74
2021/12/11 06:22:29;;;;;;;;;;;3.60;98.70;;;;;;5008411;28;19930;-74
2021/12/11 06:24:56;;;;;;;;;;;3.70;98.70;;;;;;5011383;28;19929;-73
2021/12/11 06:27:24;;;;;;;;;;;3.60;98.70;;;;;;5010518;28;19929;-74
2021/12/11 06:29:50;;;;;;;;;;;3.60;98.70;;;;;;5007439;28;20482;-73
2021/12/11 06:32:17;;;;;;;;;;;3.60;98.70;;;;;;5010180;28;19936;-74
2021/12/11 06:34:44;;;;;;;;;;;3.60;98.70;;;;;;5010565;28;19921;-73
2021/12/11 06:37:14;;;;;;;;;;;3.60;98.70;;;;;;5011739;28;19925;-74
2021/12/11 06:39:42;;;;;;;;;;;3.60;98.70;;;;;;5009345;28;19972;-73
2021/12/11 06:42:09;;;;;;;;;;;3.60;98.70;;;;;;5008593;28;20405;-73
2021/12/11 06:44:36;;;;;;;;;;;3.60;98.60;;;;;;5011857;28;20016;-73
2021/12/11 06:47:04;;;;;;;;;;;3.60;98.20;;;;;;5008136;28;19925;-74
2021/12/11 06:49:32;;;;;;;;;;;3.60;98.00;;;;;;5010881;28;19925;-75
2021/12/11 06:51:58;;;;;;;;;;;3.60;97.90;;;;;;5012445;28;19933;-75
2021/12/11 06:54:26;;;;;;;;;;;3.60;97.90;;;;;;5019778;28;20394;-75
2021/12/11 06:56:54;;;;;;;;;;;3.60;97.90;;;;;;5017893;28;20002;-75
2021/12/11 06:59:21;;;;;;;;;;;3.60;97.90;;;;;;5013697;28;20313;-74
2021/12/11 07:01:48;;;;;;;;;;;3.60;97.90;;;;;;5012601;28;19925;-75
2021/12/11 07:04:14;;;;;;;;;;;3.60;97.90;;;;;;5013076;28;19933;-75
2021/12/11 07:06:46;;;;;;;;;;;3.60;97.90;;;;;;5012682;28;19925;-75
2021/12/11 07:09:14;;;;;;;;;;;3.60;98.00;;;;;;5013604;28;20515;-76
2021/12/11 07:11:42;;;;;;;;;;;3.60;98.00;;;;;;5013050;28;19929;-75
2021/12/11 07:14:10;;;;;;;;;;;3.60;98.00;;;;;;5012408;28;19932;-76
2021/12/11 07:16:37;;;;;;;;;;;3.50;98.00;;;;;;5011519;28;20383;-75
2021/12/11 07:19:05;;;;;;;;;;;3.60;98.00;;;;;;5012665;28;20389;-74
2021/12/11 07:21:32;;;;;;;;;;;3.60;98.00;;;;;;5013292;28;19932;-75
2021/12/11 07:23:59;;;;;;;;;;;3.60;98.00;;;;;;5015720;28;19975;-75
2021/12/11 07:26:31;;;;;;;;;;;3.60;98.00;;;;;;5012858;28;19933;-75
2021/12/11 07:28:59;;;;;;;;;;;3.60;98.00;;;;;;5011182;28;19932;-75
2021/12/11 07:31:27;;;;;;;;;;;3.60;98.00;;;;;;5007102;28;19932;-74
2021/12/11 07:33:53;;;;;;;;;;;3.60;98.00;;;;;;5009201;28;19925;-74
2021/12/11 07:36:21;;;;;;;;;;;3.60;98.00;;;;;;5009549;28;20278;-75
2021/12/11 07:38:48;;;;;;;;;;;3.50;98.00;;;;;;5007316;28;19932;-76
2021/12/11 07:41:15;;;;;;;;;;;3.60;98.10;;;;;;5009414;28;19933;-75
2021/12/11 07:43:42;;;;;;;;;;;3.60;98.10;;;;;;5008834;28;19929;-76
2021/12/11 07:46:10;;;;;;;;;;;3.50;98.00;;;;;;5006889;28;19932;-76
2021/12/11 07:48:38;;;;;;;;;;;3.60;98.40;;;;;;5008557;28;20713;-77
2021/12/11 07:51:05;;;;;;;;;;;3.60;98.10;;;;;;5007287;28;20431;-76
2021/12/11 07:53:32;;;;;;;;;;;3.60;98.10;;;;;;5011907;28;19929;-75
2021/12/11 07:55:58;;;;;;;;;;;3.60;98.10;;;;;;5006702;28;19932;-76
2021/12/11 07:58:26;;;;;;;;;;;3.60;98.10;;;;;;5011021;28;19929;-74
2021/12/11 08:00:52;;;;;;;;;;;3.60;98.10;;;;;;5008424;28;19926;-75
2021/12/11 08:03:20;;;;;;;;;;;3.60;98.10;;;;;;5012351;28;20316;-75
2021/12/11 08:05:49;;;;;;;;;;;3.60;98.10;;;;;;5013696;28;20388;-74
2021/12/11 08:08:16;;;;;;;;;;;3.60;98.10;;;;;;5009175;28;19932;-74
2021/12/11 08:10:44;;;;;;;;;;;3.50;98.00;;;;;;5008204;28;19926;-75
2021/12/11 08:13:11;;;;;;;;;;;3.60;98.10;;;;;;5008626;28;19928;-75
2021/12/11 08:15:38;;;;;;;;;;;3.60;98.10;;;;;;5001937;28;20639;-75
2021/12/11 08:18:06;;;;;;;;;;;3.60;98.10;;;;;;5009774;28;19932;-75
2021/12/11 08:20:34;;;;;;;;;;;3.60;98.10;;;;;;5014373;28;19995;-74
2021/12/11 08:23:02;;;;;;;;;;;3.60;98.10;;;;;;5009718;28;19932;-75
2021/12/11 08:25:30;;;;;;;;;;;3.60;98.00;;;;;;5009777;28;19932;-75
2021/12/11 08:27:57;;;;;;;;;;;3.60;98.10;;;;;;5011368;28;19928;-75
2021/12/11 08:30:24;;;;;;;;;;;3.60;98.00;;;;;;5008269;28;19922;-75
2021/12/11 08:32:50;;;;;;;;;;;3.60;98.00;;;;;;5013888;28;19988;-74
2021/12/11 08:35:17;;;;;;;;;;;3.60;98.00;;;;;;5009072;28;19929;-75
2021/12/11 08:37:44;;;;;;;;;;;3.60;98.00;;;;;;5007899;28;19925;-75
2021/12/11 08:40:15;;;;;;;;;;;3.60;98.00;;;;;;5010165;28;19995;-76
2021/12/11 08:42:41;;;;;;;;;;;3.60;98.00;;;;;;5006956;28;19925;-75
2021/12/11 08:45:11;;;;;;;;;;;3.60;98.00;;;;;;5005437;28;20397;-74
2021/12/11 08:47:39;;;;;;;;;;;3.60;98.00;;;;;;5008547;28;20560;-74
2021/12/11 08:50:06;;;;;;;;;;;3.60;98.00;;;;;;5007956;28;19921;-75
2021/12/11 08:52:33;;;;;;;;;;;3.60;98.00;;;;;;5004129;28;19937;-75
2021/12/11 08:55:01;;;;;;;;;;;3.60;98.00;;;;;;5004117;28;20315;-75
2021/12/11 08:57:30;;;;;;;;;;;3.60;98.00;;;;;;5008651;28;19921;-75
2021/12/11 09:00:00;;;;;;;;;;;3.60;98.00;;;;;;5006759;28;19921;-75
2021/12/11 09:02:29;;;;;;;;;;;3.60;98.00;;;;;;5008178;28;19928;-75
2021/12/11 09:04:58;;;;;;;;;;;3.60;98.00;;;;;;5009782;28;19929;-76
2021/12/11 09:07:27;;;;;;;;;;;3.60;98.00;;;;;;5009385;28;19967;-75
2021/12/11 09:09:55;;;;;;;;;;;3.60;97.90;;;;;;5003423;28;19971;-75
2021/12/11 09:12:24;;;;;;;;;;;3.60;97.90;;;;;;5006692;28;20428;-75
2021/12/11 09:14:53;;;;;;;;;;;3.60;97.90;;;;;;5004517;28;20270;-74
2021/12/11 09:17:25;;;;;;;;;;;3.60;97.90;;;;;;5007388;28;19922;-75
2021/12/11 09:19:54;;;;;;;;;;;3.60;97.90;;;;;;5007306;28;19991;-75
2021/12/11 09:22:26;;;;;;;;;;;3.60;97.90;;;;;;5007523;28;20389;-75
2021/12/11 09:24:55;;;;;;;;;;;3.60;97.90;;;;;;5007143;28;20377;-74
2021/12/11 09:27:25;;;;;;;;;;;3.60;97.90;;;;;;5006448;28;20305;-74
2021/12/11 09:29:57;;;;;;;;;;;3.60;97.90;;;;;;5006954;28;19987;-75
2021/12/11 09:32:26;;;;;;;;;;;3.60;97.90;;;;;;5005929;28;19925;-74
2021/12/11 09:34:54;;;;;;;;;;;3.60;97.90;;;;;;5009563;28;20412;-75
2021/12/11 09:37:21;;;;;;;;;;;3.60;97.90;;;;;;4999036;28;19925;-75
2021/12/11 09:39:50;;;;;;;;;;;3.60;97.90;;;;;;5004802;28;19979;-75
2021/12/11 09:42:16;;;;;;;;;;;3.60;97.90;;;;;;5005382;28;19936;-74
2021/12/11 09:44:47;;;;;;;;;;;3.70;97.90;;;;;;5007436;28;19921;-75
2021/12/11 09:47:17;;;;;;;;;;;3.70;97.90;;;;;;5008782;28;19921;-75
2021/12/11 09:49:45;;;;;;;;;;;3.70;97.90;;;;;;5005570;28;19928;-75
2021/12/11 09:52:18;;;;;;;;;;;3.70;97.90;;;;;;5004662;28;19971;-74
2021/12/11 09:54:47;;;;;;;;;;;3.70;97.90;;;;;;5005284;28;19992;-74
2021/12/11 09:57:15;;;;;;;;;;;3.70;97.90;;;;;;5011140;28;20600;-74
2021/12/11 09:59:43;;;;;;;;;;;3.70;97.90;;;;;;5007091;28;20594;-76
2021/12/11 10:02:12;;;;;;;;;;;3.70;97.90;;;;;;5007153;28;19937;-74
2021/12/11 10:04:42;;;;;;;;;;;3.70;97.90;;;;;;5009343;28;19979;-75
2021/12/11 10:07:25;;;;;;;;;;;3.70;97.90;;;;;;5008587;28;20430;-75
2021/12/11 10:09:53;;;;;;;;;;;3.70;97.90;;;;;;5006621;28;19925;-76
2021/12/11 10:12:21;;;;;;;;;;;3.70;97.90;;;;;;5009234;28;19967;-75
2021/12/11 10:14:52;;;;;;;;;;;3.80;97.90;;;;;;5006137;28;19932;-75
2021/12/11 10:17:21;;;;;;;;;;;3.80;97.90;;;;;;5004569;28;19934;-75
2021/12/11 10:19:48;;;;;;;;;;;3.80;97.90;;;;;;5010467;28;19936;-75
2021/12/11 10:22:16;;;;;;;;;;;3.80;97.90;;;;;;5008270;28;19944;-75
2021/12/11 10:24:43;;;;;;;;;;;3.80;97.80;;;;;;5003090;28;19937;-74
2021/12/11 10:27:11;;;;;;;;;;;3.80;98.10;;;;;;5006007;28;20396;-76
2021/12/11 10:29:40;;;;;;;;;;;3.80;97.80;;;;;;5014058;28;19925;-75
2021/12/11 10:32:10;;;;;;;;;;;3.90;97.80;;;;;;5003598;28;19932;-74
2021/12/11 10:34:39;;;;;;;;;;;3.90;97.80;;;;;;5005574;28;19928;-74
2021/12/11 10:37:08;;;;;;;;;;;3.90;97.80;;;;;;5009178;28;20484;-75
2021/12/11 10:39:35;;;;;;;;;;;3.90;97.70;;;;;;5006858;28;19964;-75
2021/12/11 10:42:01;;;;;;;;;;;3.90;97.70;;;;;;5005343;28;19926;-76
2021/12/11 10:44:29;;;;;;;;;;;3.90;97.70;;;;;;5006499;28;19936;-75
2021/12/11 10:46:58;;;;;;;;;;;3.90;97.70;;;;;;5001784;28;19932;-76
2021/12/11 10:49:25;;;;;;;;;;;3.90;97.60;;;;;;5005474;28;20377;-75
2021/12/11 10:52:01;;;;;;;;;;;3.90;97.60;;;;;;5009121;28;19974;-75
2021/12/11 10:54:28;;;;;;;;;;;3.90;97.60;;;;;;5007651;28;19929;-75
2021/12/11 10:56:56;;;;;;;;;;;4.00;97.60;;;;;;5004353;28;19925;-75
2021/12/11 10:59:24;;;;;;;;;;;4.00;97.60;;;;;;4998201;28;20308;-74
2021/12/11 11:01:52;;;;;;;;;;;4.00;97.50;;;;;;5004858;28;19929;-76
2021/12/11 11:04:20;;;;;;;;;;;4.00;97.50;;;;;;5005325;28;19931;-75
2021/12/11 11:06:47;;;;;;;;;;;4.00;97.50;;;;;;5010020;28;19937;-75
2021/12/11 11:09:16;;;;;;;;;;;4.00;97.50;;;;;;5007912;28;19987;-74
2021/12/11 11:11:43;;;;;;;;;;;4.00;97.50;;;;;;5009943;28;19964;-75
2021/12/11 11:14:10;;;;;;;;;;;4.10;97.50;;;;;;5008336;28;19980;-75
2021/12/11 11:16:38;;;;;;;;;;;4.00;97.40;;;;;;5008150;28;19925;-75
2021/12/11 11:19:05;;;;;;;;;;;4.10;97.40;;;;;;5007816;28;19933;-76
2021/12/11 11:21:32;;;;;;;;;;;4.10;97.40;;;;;;5013049;28;19925;-75
2021/12/11 11:24:00;;;;;;;;;;;4.10;97.40;;;;;;5011819;28;19933;-75
2021/12/11 11:26:29;;;;;;;;;;;4.10;97.40;;;;;;5011448;28;20451;-75
2021/12/11 11:28:56;;;;;;;;;;;4.10;97.30;;;;;;5009119;28;19929;-75
2021/12/11 11:31:26;;;;;;;;;;;4.20;97.30;;;;;;5010743;28;19929;-74
2021/12/11 11:33:53;;;;;;;;;;;4.20;97.30;;;;;;5012514;28;19929;-74
2021/12/11 11:36:20;;;;;;;;;;;4.20;97.20;;;;;;5008585;28;19921;-75
2021/12/11 11:38:48;;;;;;;;;;;4.20;97.20;;;;;;5001915;28;20377;-76
2021/12/11 11:41:17;;;;;;;;;;;4.20;97.20;;;;;;5007031;28;19925;-76
2021/12/11 11:43:45;;;;;;;;;;;4.20;97.20;;;;;;5007484;28;19925;-75
2021/12/11 11:46:12;;;;;;;;;;;4.20;97.10;;;;;;5005224;28;19933;-75
2021/12/11 11:48:41;;;;;;;;;;;4.20;97.10;;;;;;5008479;28;19932;-74
2021/12/11 11:51:10;;;;;;;;;;;4.20;97.10;;;;;;5003061;28;19933;-74
2021/12/11 11:53:37;;;;;;;;;;;4.20;97.00;;;;;;5008104;28;19932;-74
2021/12/11 11:56:06;;;;;;;;;;;4.30;97.00;;;;;;5013509;28;19932;-75
2021/12/11 11:58:33;;;;;;;;;;;4.30;97.00;;;;;;5008075;28;19925;-74
2021/12/11 12:01:08;;;;;;;;;;;4.30;97.00;;;;;;5003473;28;19975;-74
2021/12/11 12:03:35;;;;;;;;;;;4.30;96.90;;;;;;5009822;28;19929;-75
2021/12/11 12:06:04;;;;;;;;;;;4.40;96.90;;;;;;5012606;28;19932;-75
2021/12/11 12:08:30;;;;;;;;;;;4.40;96.90;;;;;;5008394;28;19948;-74
2021/12/11 12:10:57;;;;;;;;;;;4.40;96.90;;;;;;5007388;28;19925;-76
2021/12/11 12:13:25;;;;;;;;;;;4.40;96.80;;;;;;5009010;28;19925;-74
2021/12/11 12:15:54;;;;;;;;;;;4.40;96.80;;;;;;5006354;28;19944;-75
2021/12/11 12:18:22;;;;;;;;;;;4.40;96.80;;;;;;5014428;28;20015;-75
2021/12/11 12:20:50;;;;;;;;;;;4.40;96.80;;;;;;5008602;28;20336;-75
2021/12/11 12:23:18;;;;;;;;;;;4.40;96.70;;;;;;5007472;28;19925;-75
2021/12/11 12:25:45;;;;;;;;;;;4.50;96.70;;;;;;5008597;28;19936;-75
2021/12/11 12:28:12;;;;;;;;;;;4.50;96.60;;;;;;5008563;28;19979;-76
2021/12/11 12:30:40;;;;;;;;;;;4.50;96.50;;;;;;5005460;28;20024;-76
2021/12/11 12:33:07;;;;;;;;;;;4.50;96.50;;;;;;5006981;28;19925;-74
2021/12/11 12:35:35;;;;;;;;;;;4.50;96.40;;;;;;5008287;28;19929;-76
2021/12/11 12:38:02;;;;;;;;;;;4.50;96.40;;;;;;5004928;28;19932;-75
2021/12/11 12:40:30;;;;;;;;;;;4.50;96.30;;;;;;5007476;28;19925;-75
2021/12/11 12:43:05;;;;;;;;;;;4.50;96.20;;;;;;5008084;28;19925;-76
2021/12/11 12:45:34;;;;;;;;;;;4.50;96.20;;;;;;5003247;28;19925;-74
2021/12/11 12:48:04;;;;;;;;;;;4.60;96.30;;;;;;5004860;28;19925;-74
2021/12/11 12:50:32;;;;;;;;;;;4.60;96.20;;;;;;5003899;28;19933;-75
2021/12/11 12:53:00;;;;;;;;;;;4.60;96.50;;;;;;5001336;28;19926;-75
2021/12/11 12:55:28;;;;;;;;;;;4.60;96.10;;;;;;5008967;28;19925;-76
2021/12/11 12:57:56;;;;;;;;;;;4.60;96.10;;;;;;5010342;28;19928;-75
2021/12/11 13:00:25;;;;;;;;;;;4.60;96.00;;;;;;5011152;28;19940;-74
2021/12/11 13:02:53;;;;;;;;;;;4.70;96.00;;;;;;5012204;28;19925;-75
2021/12/11 13:05:27;;;;;;;;;;;4.70;95.90;;;;;;5008240;28;19932;-75
2021/12/11 13:07:56;;;;;;;;;;;4.70;95.80;;;;;;5008563;28;19928;-75
2021/12/11 13:10:25;;;;;;;;;;;4.70;95.70;;;;;;5000652;28;19995;-75
2021/12/11 13:12:52;;;;;;;;;;;4.80;95.70;;;;;;5007399;28;19968;-74
2021/12/11 13:15:21;;;;;;;;;;;4.70;95.50;;;;;;5005482;28;19925;-75
2021/12/11 13:17:50;;;;;;;;;;;4.80;95.40;;;;;;5008340;28;19925;-74
2021/12/11 13:20:20;;;;;;;;;;;4.70;95.30;;;;;;5007364;28;19972;-75
2021/12/11 13:22:48;;;;;;;;;;;4.70;95.40;;;;;;5006598;28;19937;-74
2021/12/11 13:25:19;;;;;;;;;;;4.70;95.40;;;;;;5007290;28;19932;-74
2021/12/11 13:27:50;;;;;;;;;;;4.70;95.40;;;;;;5006206;28;20028;-74
2021/12/11 13:30:19;;;;;;;;;;;4.80;95.40;;;;;;5004411;28;20305;-74
2021/12/11 13:32:47;;;;;;;;;;;4.70;95.40;;;;;;5004747;28;20348;-76
2021/12/11 13:35:16;;;;;;;;;;;4.80;95.30;;;;;;5001000;28;19929;-74
2021/12/11 13:37:42;;;;;;;;;;;4.80;95.30;;;;;;5000770;28;19928;-76
2021/12/11 13:40:11;;;;;;;;;;;4.80;95.30;;;;;;5003043;28;19937;-76
2021/12/11 13:42:38;;;;;;;;;;;4.80;95.20;;;;;;5004982;28;19926;-76
2021/12/11 13:45:08;;;;;;;;;;;4.80;95.20;;;;;;5004440;28;19925;-77
2021/12/11 13:47:36;;;;;;;;;;;4.80;95.20;;;;;;5005662;28;19956;-75
2021/12/11 13:50:07;;;;;;;;;;;4.80;95.20;;;;;;5003006;28;20587;-75
2021/12/11 13:52:34;;;;;;;;;;;4.80;95.20;;;;;;5008145;28;19929;-74
2021/12/11 13:55:01;;;;;;;;;;;4.80;95.30;;;;;;5010696;28;19925;-75
2021/12/11 13:57:27;;;;;;;;;;;4.80;95.40;;;;;;5001882;28;19926;-75
2021/12/11 13:59:55;;;;;;;;;;;4.80;95.40;;;;;;5001716;28;19925;-75
2021/12/11 14:02:24;;;;;;;;;;;4.80;95.40;;;;;;5003409;28;20449;-76
2021/12/11 14:04:51;;;;;;;;;;;4.80;95.50;;;;;;5005200;28;19956;-76
2021/12/11 14:07:21;;;;;;;;;;;4.70;95.50;;;;;;5005417;28;19929;-76
2021/12/11 14:09:50;;;;;;;;;;;4.70;95.50;;;;;;5004406;28;19960;-74
2021/12/11 14:12:17;;;;;;;;;;;4.70;95.60;;;;;;5003948;28;19929;-75
2021/12/11 14:14:44;;;;;;;;;;;4.70;95.60;;;;;;5005850;28;20688;-75
2021/12/11 14:17:11;;;;;;;;;;;4.70;95.60;;;;;;5004932;28;20790;-75
2021/12/11 14:19:40;;;;;;;;;;;4.70;95.70;;;;;;5004459;28;19955;-75
2021/12/11 14:22:07;;;;;;;;;;;4.70;95.70;;;;;;5001238;28;19937;-75
2021/12/11 14:24:34;;;;;;;;;;;4.60;95.70;;;;;;5002969;28;19929;-75
2021/12/11 14:27:02;;;;;;;;;;;4.70;95.80;;;;;;5003053;28;19928;-76
2021/12/11 14:29:29;;;;;;;;;;;4.60;95.80;;;;;;5004128;28;20560;-74
2021/12/11 14:31:56;;;;;;;;;;;4.60;95.90;;;;;;5002229;28;20157;-75
2021/12/11 14:34:23;;;;;;;;;;;4.60;95.90;;;;;;5002258;28;19929;-73
2021/12/11 14:36:52;;;;;;;;;;;4.60;95.80;;;;;;5002888;28;19933;-74
2021/12/11 14:39:23;;;;;;;;;;;4.70;95.40;;;;;;5003142;28;19925;-75
2021/12/11 14:41:50;;;;;;;;;;;4.80;95.00;;;;;;5003312;28;19936;-74